sensor_id;sensor_type;location;lat;lon;timestamp;P1;durP1;ratioP1;P2;durP2;ratioP2
6941;SDS011;3510;43.200;27.920;2023-03-02T08:07:04;20.43;;;14.87;;
6941;SDS011;3510;43.200;27.920;2023-03-02T08:09:33;24.63;;;17.70;;
6941;SDS011;3510;43.200;27.920;2023-03-02T08:12:02;22.40;;;16.03;;
6941;SDS011;3510;43.200;27.920;2023-03-02T08:14:29;23.83;;;16.70;;
6941;SDS011;3510;43.200;27.920;2023-03-02T08:16:55;23.63;;;13.67;;
6941;SDS011;3510;43.200;27.920;2023-03-02T08:19:22;23.00;;;16.57;;
6941;SDS011;3510;43.200;27.920;2023-03-02T08:21:50;22.80;;;17.33;;
6941;SDS011;3510;43.200;27.920;2023-03-02T08:24:17;22.07;;;14.40;;
6941;SDS011;3510;43.200;27.920;2023-03-02T08:26:53;21.53;;;16.60;;
6941;SDS011;3510;43.200;27.920;2023-03-02T08:29:21;26.57;;;15.10;;
6941;SDS011;3510;43.200;27.920;2023-03-02T08:31:49;21.83;;;16.70;;
6941;SDS011;3510;43.200;27.920;2023-03-02T08:34:15;21.47;;;17.30;;
6941;SDS011;3510;43.200;27.920;2023-03-02T08:36:42;27.47;;;15.73;;
6941;SDS011;3510;43.200;27.920;2023-03-02T08:39:09;21.60;;;15.23;;
6941;SDS011;3510;43.200;27.920;2023-03-02T08:41:36;22.33;;;14.57;;
6941;SDS011;3510;43.200;27.920;2023-03-02T08:44:03;21.03;;;14.37;;
6941;SDS011;3510;43.200;27.920;2023-03-02T08:46:31;21.43;;;11.43;;
6941;SDS011;3510;43.200;27.920;2023-03-02T08:48:57;24.43;;;13.70;;
6941;SDS011;3510;43.200;27.920;2023-03-02T08:51:24;23.70;;;13.77;;
6941;SDS011;3510;43.200;27.920;2023-03-02T08:53:54;20.30;;;14.60;;
6941;SDS011;3510;43.200;27.920;2023-03-02T08:56:22;26.60;;;14.87;;
6941;SDS011;3510;43.200;27.920;2023-03-02T08:58:50;23.17;;;14.73;;
6941;SDS011;3510;43.200;27.920;2023-03-02T09:01:19;19.83;;;13.63;;
6941;SDS011;3510;43.200;27.920;2023-03-02T09:03:49;20.27;;;14.67;;
6941;SDS011;3510;43.200;27.920;2023-03-02T09:06:16;21.43;;;15.60;;
6941;SDS011;3510;43.200;27.920;2023-03-02T09:08:44;26.17;;;15.20;;
6941;SDS011;3510;43.200;27.920;2023-03-02T09:11:11;22.47;;;14.50;;
6941;SDS011;3510;43.200;27.920;2023-03-02T09:13:37;20.60;;;16.47;;
6941;SDS011;3510;43.200;27.920;2023-03-02T09:16:05;20.27;;;13.57;;
6941;SDS011;3510;43.200;27.920;2023-03-02T09:18:33;27.87;;;13.87;;
6941;SDS011;3510;43.200;27.920;2023-03-02T09:21:02;22.17;;;13.43;;
6941;SDS011;3510;43.200;27.920;2023-03-02T09:23:30;23.07;;;13.33;;
6941;SDS011;3510;43.200;27.920;2023-03-02T09:25:57;19.80;;;15.67;;
6941;SDS011;3510;43.200;27.920;2023-03-02T09:28:25;20.17;;;13.60;;
6941;SDS011;3510;43.200;27.920;2023-03-02T09:30:52;23.03;;;15.30;;
6941;SDS011;3510;43.200;27.920;2023-03-02T09:33:20;22.40;;;14.03;;
6941;SDS011;3510;43.200;27.920;2023-03-02T09:35:46;31.10;;;14.20;;
6941;SDS011;3510;43.200;27.920;2023-03-02T09:38:15;17.27;;;12.27;;
6941;SDS011;3510;43.200;27.920;2023-03-02T09:40:49;24.43;;;12.40;;
6941;SDS011;3510;43.200;27.920;2023-03-02T09:43:32;16.67;;;10.77;;
6941;SDS011;3510;43.200;27.920;2023-03-02T09:46:14;15.50;;;11.77;;
6941;SDS011;3510;43.200;27.920;2023-03-02T09:48:52;15.97;;;11.03;;
6941;SDS011;3510;43.200;27.920;2023-03-02T09:51:31;19.73;;;11.60;;
6941;SDS011;3510;43.200;27.920;2023-03-02T09:54:04;20.83;;;11.10;;
6941;SDS011;3510;43.200;27.920;2023-03-02T09:56:36;14.97;;;11.13;;
6941;SDS011;3510;43.200;27.920;2023-03-02T09:59:06;14.70;;;11.57;;
6941;SDS011;3510;43.200;27.920;2023-03-02T10:01:39;20.83;;;12.80;;
6941;SDS011;3510;43.200;27.920;2023-03-02T10:04:16;19.57;;;11.17;;
6941;SDS011;3510;43.200;27.920;2023-03-02T10:06:48;15.63;;;11.60;;
6941;SDS011;3510;43.200;27.920;2023-03-02T10:09:21;15.30;;;10.83;;
6941;SDS011;3510;43.200;27.920;2023-03-02T10:11:53;14.83;;;11.00;;
6941;SDS011;3510;43.200;27.920;2023-03-02T10:14:34;14.77;;;10.63;;
6941;SDS011;3510;43.200;27.920;2023-03-02T10:17:11;17.93;;;11.27;;
6941;SDS011;3510;43.200;27.920;2023-03-02T10:19:50;16.53;;;12.40;;
6941;SDS011;3510;43.200;27.920;2023-03-02T10:22:23;15.73;;;12.23;;
6941;SDS011;3510;43.200;27.920;2023-03-02T10:24:55;17.63;;;12.70;;
6941;SDS011;3510;43.200;27.920;2023-03-02T10:27:37;23.43;;;13.53;;
6941;SDS011;3510;43.200;27.920;2023-03-02T10:30:09;13.70;;;12.03;;
6941;SDS011;3510;43.200;27.920;2023-03-02T10:32:45;16.10;;;11.43;;
6941;SDS011;3510;43.200;27.920;2023-03-02T10:35:15;19.47;;;12.93;;
6941;SDS011;3510;43.200;27.920;2023-03-02T10:37:44;22.27;;;13.43;;
6941;SDS011;3510;43.200;27.920;2023-03-02T10:40:19;18.73;;;14.57;;
6941;SDS011;3510;43.200;27.920;2023-03-02T10:42:53;21.93;;;13.70;;
6941;SDS011;3510;43.200;27.920;2023-03-02T10:45:22;21.00;;;14.50;;
6941;SDS011;3510;43.200;27.920;2023-03-02T10:48:01;25.37;;;15.37;;
6941;SDS011;3510;43.200;27.920;2023-03-02T10:50:28;20.47;;;15.20;;
6941;SDS011;3510;43.200;27.920;2023-03-02T10:52:55;22.97;;;15.03;;
6941;SDS011;3510;43.200;27.920;2023-03-02T10:55:24;21.97;;;15.87;;
6941;SDS011;3510;43.200;27.920;2023-03-02T10:57:58;29.37;;;16.80;;
6941;SDS011;3510;43.200;27.920;2023-03-02T11:00:29;18.47;;;15.20;;
6941;SDS011;3510;43.200;27.920;2023-03-02T11:02:57;19.43;;;14.73;;
6941;SDS011;3510;43.200;27.920;2023-03-02T11:05:26;29.37;;;16.20;;
6941;SDS011;3510;43.200;27.920;2023-03-02T11:07:56;25.27;;;15.23;;
6941;SDS011;3510;43.200;27.920;2023-03-02T11:10:26;26.00;;;16.20;;
6941;SDS011;3510;43.200;27.920;2023-03-02T11:12:56;24.37;;;16.87;;
6941;SDS011;3510;43.200;27.920;2023-03-02T11:15:25;23.10;;;16.47;;
6941;SDS011;3510;43.200;27.920;2023-03-02T11:17:58;20.17;;;14.63;;
6941;SDS011;3510;43.200;27.920;2023-03-02T11:23:08;20.90;;;15.57;;
6941;SDS011;3510;43.200;27.920;2023-03-02T11:25:44;23.40;;;16.17;;
6941;SDS011;3510;43.200;27.920;2023-03-02T11:28:18;28.87;;;16.57;;
6941;SDS011;3510;43.200;27.920;2023-03-02T11:30:52;19.10;;;16.37;;
6941;SDS011;3510;43.200;27.920;2023-03-02T11:33:23;21.17;;;15.87;;
6941;SDS011;3510;43.200;27.920;2023-03-02T11:35:55;22.87;;;14.80;;
6941;SDS011;3510;43.200;27.920;2023-03-02T11:38:29;19.80;;;15.40;;
6941;SDS011;3510;43.200;27.920;2023-03-02T11:41:05;19.17;;;14.90;;
6941;SDS011;3510;43.200;27.920;2023-03-02T11:43:44;29.50;;;13.93;;
6941;SDS011;3510;43.200;27.920;2023-03-02T11:46:13;23.40;;;13.63;;
6941;SDS011;3510;43.200;27.920;2023-03-02T11:48:48;22.63;;;14.13;;
6941;SDS011;3510;43.200;27.920;2023-03-02T11:51:26;21.00;;;13.40;;
6941;SDS011;3510;43.200;27.920;2023-03-02T11:53:56;19.27;;;13.73;;
6941;SDS011;3510;43.200;27.920;2023-03-02T11:56:29;20.80;;;13.67;;
6941;SDS011;3510;43.200;27.920;2023-03-02T11:58:59;21.03;;;13.83;;
6941;SDS011;3510;43.200;27.920;2023-03-02T12:01:29;21.93;;;14.87;;
6941;SDS011;3510;43.200;27.920;2023-03-02T12:04:05;20.70;;;13.13;;
6941;SDS011;3510;43.200;27.920;2023-03-02T12:06:34;26.23;;;13.70;;
6941;SDS011;3510;43.200;27.920;2023-03-02T12:09:09;17.93;;;12.53;;
6941;SDS011;3510;43.200;27.920;2023-03-02T12:11:57;16.73;;;12.57;;
6941;SDS011;3510;43.200;27.920;2023-03-02T12:14:28;24.43;;;15.37;;
6941;SDS011;3510;43.200;27.920;2023-03-02T12:17:15;20.73;;;13.17;;
6941;SDS011;3510;43.200;27.920;2023-03-02T12:19:45;20.10;;;13.03;;
6941;SDS011;3510;43.200;27.920;2023-03-02T12:22:13;22.63;;;13.27;;
6941;SDS011;3510;43.200;27.920;2023-03-02T12:24:59;22.10;;;14.23;;
6941;SDS011;3510;43.200;27.920;2023-03-02T12:27:35;17.87;;;13.20;;
6941;SDS011;3510;43.200;27.920;2023-03-02T12:32:58;20.37;;;14.03;;
6941;SDS011;3510;43.200;27.920;2023-03-02T12:35:30;18.40;;;13.00;;
6941;SDS011;3510;43.200;27.920;2023-03-02T12:37:58;17.70;;;13.37;;
6941;SDS011;3510;43.200;27.920;2023-03-02T12:40:32;15.37;;;12.03;;
6941;SDS011;3510;43.200;27.920;2023-03-02T12:43:13;21.90;;;12.57;;
6941;SDS011;3510;43.200;27.920;2023-03-02T12:45:58;13.33;;;10.83;;
6941;SDS011;3510;43.200;27.920;2023-03-02T12:48:46;18.20;;;12.17;;
6941;SDS011;3510;43.200;27.920;2023-03-02T12:51:18;14.23;;;11.33;;
6941;SDS011;3510;43.200;27.920;2023-03-02T12:53:47;19.43;;;11.93;;
6941;SDS011;3510;43.200;27.920;2023-03-02T12:56:20;22.13;;;12.50;;
6941;SDS011;3510;43.200;27.920;2023-03-02T12:58:50;15.60;;;11.37;;
6941;SDS011;3510;43.200;27.920;2023-03-02T13:01:20;22.27;;;12.43;;
6941;SDS011;3510;43.200;27.920;2023-03-02T13:03:48;15.70;;;12.27;;
6941;SDS011;3510;43.200;27.920;2023-03-02T13:06:17;15.80;;;12.47;;
6941;SDS011;3510;43.200;27.920;2023-03-02T13:08:44;15.87;;;12.37;;
6941;SDS011;3510;43.200;27.920;2023-03-02T13:11:13;20.87;;;12.10;;
6941;SDS011;3510;43.200;27.920;2023-03-02T13:13:47;19.43;;;13.67;;
6941;SDS011;3510;43.200;27.920;2023-03-02T13:16:18;20.97;;;14.03;;
6941;SDS011;3510;43.200;27.920;2023-03-02T13:18:47;20.97;;;13.57;;
6941;SDS011;3510;43.200;27.920;2023-03-02T13:21:18;22.57;;;13.33;;
6941;SDS011;3510;43.200;27.920;2023-03-02T13:23:46;18.00;;;12.67;;
6941;SDS011;3510;43.200;27.920;2023-03-02T13:29:01;19.33;;;12.97;;
6941;SDS011;3510;43.200;27.920;2023-03-02T13:31:30;17.00;;;12.13;;
6941;SDS011;3510;43.200;27.920;2023-03-02T13:33:58;14.40;;;11.70;;
6941;SDS011;3510;43.200;27.920;2023-03-02T13:36:27;19.73;;;12.00;;
6941;SDS011;3510;43.200;27.920;2023-03-02T13:38:56;18.60;;;11.73;;
6941;SDS011;3510;43.200;27.920;2023-03-02T13:41:25;18.53;;;12.13;;
6941;SDS011;3510;43.200;27.920;2023-03-02T13:43:53;27.10;;;12.30;;
6941;SDS011;3510;43.200;27.920;2023-03-02T13:46:25;17.60;;;12.40;;
6941;SDS011;3510;43.200;27.920;2023-03-02T13:48:54;13.67;;;12.17;;
6941;SDS011;3510;43.200;27.920;2023-03-02T13:51:22;17.63;;;11.77;;
6941;SDS011;3510;43.200;27.920;2023-03-02T13:53:52;24.10;;;12.33;;
6941;SDS011;3510;43.200;27.920;2023-03-02T13:56:22;13.97;;;11.10;;
6941;SDS011;3510;43.200;27.920;2023-03-02T13:58:53;15.40;;;11.93;;
6941;SDS011;3510;43.200;27.920;2023-03-02T14:01:20;17.03;;;11.07;;
6941;SDS011;3510;43.200;27.920;2023-03-02T14:03:48;23.93;;;12.27;;
6941;SDS011;3510;43.200;27.920;2023-03-02T14:06:15;18.47;;;11.87;;
6941;SDS011;3510;43.200;27.920;2023-03-02T14:08:43;13.77;;;11.23;;
6941;SDS011;3510;43.200;27.920;2023-03-02T14:11:11;14.47;;;10.43;;
6941;SDS011;3510;43.200;27.920;2023-03-02T14:13:39;11.23;;;9.23;;
6941;SDS011;3510;43.200;27.920;2023-03-02T14:16:09;10.13;;;9.03;;
6941;SDS011;3510;43.200;27.920;2023-03-02T14:18:38;15.07;;;9.63;;
6941;SDS011;3510;43.200;27.920;2023-03-02T14:21:09;14.83;;;8.77;;
6941;SDS011;3510;43.200;27.920;2023-03-02T14:23:38;14.80;;;8.77;;
6941;SDS011;3510;43.200;27.920;2023-03-02T14:26:13;11.30;;;8.70;;
6941;SDS011;3510;43.200;27.920;2023-03-02T14:28:46;13.80;;;8.97;;
6941;SDS011;3510;43.200;27.920;2023-03-02T14:31:13;12.83;;;9.33;;
6941;SDS011;3510;43.200;27.920;2023-03-02T14:33:40;12.93;;;9.07;;
6941;SDS011;3510;43.200;27.920;2023-03-02T14:36:09;11.03;;;8.43;;
6941;SDS011;3510;43.200;27.920;2023-03-02T14:38:49;12.63;;;8.03;;
6941;SDS011;3510;43.200;27.920;2023-03-02T14:41:17;21.23;;;8.23;;
6941;SDS011;3510;43.200;27.920;2023-03-02T14:43:48;11.60;;;7.80;;
6941;SDS011;3510;43.200;27.920;2023-03-02T14:46:15;11.97;;;7.93;;
6941;SDS011;3510;43.200;27.920;2023-03-02T14:48:42;11.50;;;7.90;;
6941;SDS011;3510;43.200;27.920;2023-03-02T14:51:14;9.17;;;8.27;;
6941;SDS011;3510;43.200;27.920;2023-03-02T14:53:46;10.50;;;8.00;;
6941;SDS011;3510;43.200;27.920;2023-03-02T14:56:16;15.03;;;8.70;;
6941;SDS011;3510;43.200;27.920;2023-03-02T14:58:46;10.93;;;7.53;;
6941;SDS011;3510;43.200;27.920;2023-03-02T15:01:14;12.17;;;7.67;;
6941;SDS011;3510;43.200;27.920;2023-03-02T15:03:42;12.70;;;8.40;;
6941;SDS011;3510;43.200;27.920;2023-03-02T15:06:16;7.83;;;7.03;;
6941;SDS011;3510;43.200;27.920;2023-03-02T15:08:50;13.73;;;8.33;;
6941;SDS011;3510;43.200;27.920;2023-03-02T15:11:17;16.37;;;9.47;;
6941;SDS011;3510;43.200;27.920;2023-03-02T15:13:44;12.80;;;9.50;;
6941;SDS011;3510;43.200;27.920;2023-03-02T15:16:11;14.53;;;7.70;;
6941;SDS011;3510;43.200;27.920;2023-03-02T15:18:37;12.13;;;8.33;;
6941;SDS011;3510;43.200;27.920;2023-03-02T15:21:05;8.60;;;7.53;;
6941;SDS011;3510;43.200;27.920;2023-03-02T15:23:34;7.13;;;6.53;;
6941;SDS011;3510;43.200;27.920;2023-03-02T15:26:01;7.43;;;6.73;;
6941;SDS011;3510;43.200;27.920;2023-03-02T15:28:29;6.77;;;5.83;;
6941;SDS011;3510;43.200;27.920;2023-03-02T15:31:10;9.57;;;8.73;;
6941;SDS011;3510;43.200;27.920;2023-03-02T15:33:39;10.43;;;8.57;;
6941;SDS011;3510;43.200;27.920;2023-03-02T15:36:07;10.77;;;8.77;;
6941;SDS011;3510;43.200;27.920;2023-03-02T15:38:35;14.30;;;8.07;;
6941;SDS011;3510;43.200;27.920;2023-03-02T15:41:03;11.10;;;7.27;;
6941;SDS011;3510;43.200;27.920;2023-03-02T15:43:31;11.13;;;6.70;;
6941;SDS011;3510;43.200;27.920;2023-03-02T15:46:03;10.43;;;7.40;;
6941;SDS011;3510;43.200;27.920;2023-03-02T15:48:31;9.60;;;7.63;;
6941;SDS011;3510;43.200;27.920;2023-03-02T15:50:58;9.20;;;7.63;;
6941;SDS011;3510;43.200;27.920;2023-03-02T15:53:26;15.97;;;7.37;;
6941;SDS011;3510;43.200;27.920;2023-03-02T15:55:55;9.10;;;7.47;;
6941;SDS011;3510;43.200;27.920;2023-03-02T15:58:22;13.07;;;7.40;;
6941;SDS011;3510;43.200;27.920;2023-03-02T16:00:49;12.10;;;8.07;;
6941;SDS011;3510;43.200;27.920;2023-03-02T16:03:18;15.60;;;7.70;;
6941;SDS011;3510;43.200;27.920;2023-03-02T16:05:45;11.70;;;7.40;;
6941;SDS011;3510;43.200;27.920;2023-03-02T16:08:12;11.70;;;6.93;;
6941;SDS011;3510;43.200;27.920;2023-03-02T16:10:38;12.67;;;8.13;;
6941;SDS011;3510;43.200;27.920;2023-03-02T16:13:08;11.63;;;8.17;;
6941;SDS011;3510;43.200;27.920;2023-03-02T16:15:37;10.87;;;8.50;;
6941;SDS011;3510;43.200;27.920;2023-03-02T16:18:05;14.57;;;8.43;;
6941;SDS011;3510;43.200;27.920;2023-03-02T16:20:33;14.67;;;9.07;;
6941;SDS011;3510;43.200;27.920;2023-03-02T16:23:01;9.53;;;7.90;;
6941;SDS011;3510;43.200;27.920;2023-03-02T16:25:30;16.80;;;8.47;;
6941;SDS011;3510;43.200;27.920;2023-03-02T16:27:59;12.07;;;8.27;;
6941;SDS011;3510;43.200;27.920;2023-03-02T16:30:27;10.43;;;7.90;;
6941;SDS011;3510;43.200;27.920;2023-03-02T16:32:56;11.00;;;8.13;;
6941;SDS011;3510;43.200;27.920;2023-03-02T16:35:24;12.13;;;9.73;;
6941;SDS011;3510;43.200;27.920;2023-03-02T16:37:51;11.97;;;10.00;;
6941;SDS011;3510;43.200;27.920;2023-03-02T16:40:18;10.47;;;8.57;;
6941;SDS011;3510;43.200;27.920;2023-03-02T16:42:45;13.87;;;10.17;;
6941;SDS011;3510;43.200;27.920;2023-03-02T16:45:12;14.63;;;8.27;;
6941;SDS011;3510;43.200;27.920;2023-03-02T16:47:40;17.33;;;9.77;;
6941;SDS011;3510;43.200;27.920;2023-03-02T16:50:07;13.70;;;9.40;;
6941;SDS011;3510;43.200;27.920;2023-03-02T16:52:36;16.30;;;10.17;;
6941;SDS011;3510;43.200;27.920;2023-03-02T16:55:03;11.40;;;7.80;;
6941;SDS011;3510;43.200;27.920;2023-03-02T16:57:33;9.43;;;8.10;;
6941;SDS011;3510;43.200;27.920;2023-03-02T17:00:00;13.63;;;10.33;;
6941;SDS011;3510;43.200;27.920;2023-03-02T17:02:26;11.27;;;7.57;;
6941;SDS011;3510;43.200;27.920;2023-03-02T17:04:55;10.47;;;8.13;;
6941;SDS011;3510;43.200;27.920;2023-03-02T17:07:21;12.97;;;8.43;;
6941;SDS011;3510;43.200;27.920;2023-03-02T17:09:48;11.30;;;8.40;;
6941;SDS011;3510;43.200;27.920;2023-03-02T17:12:17;11.23;;;8.93;;
6941;SDS011;3510;43.200;27.920;2023-03-02T17:14:43;8.60;;;7.67;;
6941;SDS011;3510;43.200;27.920;2023-03-02T17:17:10;11.10;;;7.73;;
6941;SDS011;3510;43.200;27.920;2023-03-02T17:19:37;10.07;;;8.10;;
6941;SDS011;3510;43.200;27.920;2023-03-02T17:22:05;14.37;;;9.53;;
6941;SDS011;3510;43.200;27.920;2023-03-02T17:24:32;10.07;;;8.90;;
6941;SDS011;3510;43.200;27.920;2023-03-02T17:26:59;10.67;;;8.67;;
6941;SDS011;3510;43.200;27.920;2023-03-02T17:29:28;13.50;;;9.27;;
6941;SDS011;3510;43.200;27.920;2023-03-02T17:31:55;14.40;;;8.93;;
6941;SDS011;3510;43.200;27.920;2023-03-02T17:34:22;13.30;;;8.07;;
6941;SDS011;3510;43.200;27.920;2023-03-02T17:36:52;16.30;;;9.17;;
6941;SDS011;3510;43.200;27.920;2023-03-02T17:39:20;14.63;;;8.40;;
6941;SDS011;3510;43.200;27.920;2023-03-02T17:41:47;15.47;;;9.50;;
6941;SDS011;3510;43.200;27.920;2023-03-02T17:44:14;9.60;;;8.50;;
6941;SDS011;3510;43.200;27.920;2023-03-02T17:46:41;13.53;;;8.73;;
6941;SDS011;3510;43.200;27.920;2023-03-02T17:49:09;12.30;;;9.37;;
6941;SDS011;3510;43.200;27.920;2023-03-02T17:51:36;11.87;;;9.03;;
6941;SDS011;3510;43.200;27.920;2023-03-02T17:54:03;15.37;;;9.10;;
6941;SDS011;3510;43.200;27.920;2023-03-02T17:56:32;17.50;;;10.90;;
6941;SDS011;3510;43.200;27.920;2023-03-02T17:58:59;19.63;;;10.83;;
6941;SDS011;3510;43.200;27.920;2023-03-02T18:01:29;15.23;;;10.90;;
6941;SDS011;3510;43.200;27.920;2023-03-02T18:03:57;18.17;;;9.47;;
6941;SDS011;3510;43.200;27.920;2023-03-02T18:06:24;17.80;;;10.87;;
6941;SDS011;3510;43.200;27.920;2023-03-02T18:08:52;10.67;;;8.93;;
6941;SDS011;3510;43.200;27.920;2023-03-02T18:11:20;16.33;;;8.63;;
6941;SDS011;3510;43.200;27.920;2023-03-02T18:13:50;12.17;;;9.70;;
6941;SDS011;3510;43.200;27.920;2023-03-02T18:16:19;11.00;;;9.13;;
6941;SDS011;3510;43.200;27.920;2023-03-02T18:18:45;14.93;;;8.87;;
6941;SDS011;3510;43.200;27.920;2023-03-02T18:21:12;10.63;;;8.57;;
6941;SDS011;3510;43.200;27.920;2023-03-02T18:23:39;12.10;;;8.40;;
6941;SDS011;3510;43.200;27.920;2023-03-02T18:26:08;16.53;;;9.33;;
6941;SDS011;3510;43.200;27.920;2023-03-02T18:28:35;11.87;;;8.70;;
6941;SDS011;3510;43.200;27.920;2023-03-02T18:31:04;13.53;;;8.93;;
6941;SDS011;3510;43.200;27.920;2023-03-02T18:33:32;11.67;;;10.40;;
6941;SDS011;3510;43.200;27.920;2023-03-02T18:35:59;15.90;;;9.07;;
6941;SDS011;3510;43.200;27.920;2023-03-02T18:38:29;11.83;;;10.00;;
6941;SDS011;3510;43.200;27.920;2023-03-02T18:40:56;11.30;;;8.17;;
6941;SDS011;3510;43.200;27.920;2023-03-02T18:43:25;13.40;;;9.87;;
6941;SDS011;3510;43.200;27.920;2023-03-02T18:45:53;16.20;;;9.53;;
6941;SDS011;3510;43.200;27.920;2023-03-02T18:48:22;18.47;;;11.67;;
6941;SDS011;3510;43.200;27.920;2023-03-02T18:50:49;16.27;;;10.03;;
6941;SDS011;3510;43.200;27.920;2023-03-02T18:53:15;19.93;;;15.37;;
6941;SDS011;3510;43.200;27.920;2023-03-02T18:55:42;12.83;;;9.30;;
6941;SDS011;3510;43.200;27.920;2023-03-02T18:58:11;11.60;;;10.23;;
6941;SDS011;3510;43.200;27.920;2023-03-02T19:00:43;12.93;;;9.40;;
6941;SDS011;3510;43.200;27.920;2023-03-02T19:03:11;14.77;;;10.03;;
6941;SDS011;3510;43.200;27.920;2023-03-02T19:05:39;17.70;;;9.67;;
6941;SDS011;3510;43.200;27.920;2023-03-02T19:08:06;10.17;;;7.93;;
6941;SDS011;3510;43.200;27.920;2023-03-02T19:10:34;14.90;;;10.23;;
6941;SDS011;3510;43.200;27.920;2023-03-02T19:13:01;15.23;;;9.40;;
6941;SDS011;3510;43.200;27.920;2023-03-02T19:15:29;12.47;;;8.97;;
6941;SDS011;3510;43.200;27.920;2023-03-02T19:17:57;13.47;;;8.80;;
6941;SDS011;3510;43.200;27.920;2023-03-02T19:20:24;11.83;;;10.50;;
6941;SDS011;3510;43.200;27.920;2023-03-02T19:22:54;12.63;;;9.07;;
6941;SDS011;3510;43.200;27.920;2023-03-02T19:25:21;13.07;;;9.13;;
6941;SDS011;3510;43.200;27.920;2023-03-02T19:27:48;17.50;;;8.97;;
6941;SDS011;3510;43.200;27.920;2023-03-02T19:30:17;16.50;;;8.97;;
6941;SDS011;3510;43.200;27.920;2023-03-02T19:32:45;11.00;;;8.37;;
6941;SDS011;3510;43.200;27.920;2023-03-02T19:35:12;12.80;;;8.33;;
6941;SDS011;3510;43.200;27.920;2023-03-02T19:37:41;12.83;;;8.97;;
6941;SDS011;3510;43.200;27.920;2023-03-02T19:40:10;12.53;;;8.23;;
6941;SDS011;3510;43.200;27.920;2023-03-02T19:42:38;11.77;;;7.60;;
6941;SDS011;3510;43.200;27.920;2023-03-02T19:45:06;15.37;;;9.40;;
6941;SDS011;3510;43.200;27.920;2023-03-02T19:47:36;14.67;;;9.87;;
6941;SDS011;3510;43.200;27.920;2023-03-02T19:50:04;19.43;;;9.00;;
6941;SDS011;3510;43.200;27.920;2023-03-02T19:52:32;13.03;;;8.50;;
6941;SDS011;3510;43.200;27.920;2023-03-02T19:54:58;14.80;;;8.80;;
6941;SDS011;3510;43.200;27.920;2023-03-02T19:57:27;13.67;;;8.33;;
6941;SDS011;3510;43.200;27.920;2023-03-02T19:59:54;14.13;;;8.97;;
6941;SDS011;3510;43.200;27.920;2023-03-02T20:02:21;14.27;;;8.33;;
6941;SDS011;3510;43.200;27.920;2023-03-02T20:04:48;11.03;;;8.43;;
6941;SDS011;3510;43.200;27.920;2023-03-02T20:07:17;11.43;;;9.93;;
6941;SDS011;3510;43.200;27.920;2023-03-02T20:09:44;11.50;;;7.93;;
6941;SDS011;3510;43.200;27.920;2023-03-02T20:12:11;11.23;;;7.90;;
6941;SDS011;3510;43.200;27.920;2023-03-02T20:14:43;14.73;;;9.83;;
6941;SDS011;3510;43.200;27.920;2023-03-02T20:17:13;11.85;;;10.65;;
6941;SDS011;3510;43.200;27.920;2023-03-02T20:19:43;13.80;;;9.63;;
6941;SDS011;3510;43.200;27.920;2023-03-02T20:22:11;8.70;;;7.80;;
6941;SDS011;3510;43.200;27.920;2023-03-02T20:24:38;12.17;;;8.67;;
6941;SDS011;3510;43.200;27.920;2023-03-02T20:27:06;9.73;;;8.23;;
6941;SDS011;3510;43.200;27.920;2023-03-02T20:29:34;9.10;;;7.10;;
6941;SDS011;3510;43.200;27.920;2023-03-02T20:32:04;14.85;;;10.05;;
6941;SDS011;3510;43.200;27.920;2023-03-02T20:34:33;16.27;;;10.67;;
6941;SDS011;3510;43.200;27.920;2023-03-02T20:37:01;10.60;;;8.20;;
6941;SDS011;3510;43.200;27.920;2023-03-02T20:39:28;11.53;;;8.30;;
6941;SDS011;3510;43.200;27.920;2023-03-02T20:41:57;12.98;;;9.82;;
6941;SDS011;3510;43.200;27.920;2023-03-02T20:44:24;10.77;;;8.10;;
6941;SDS011;3510;43.200;27.920;2023-03-02T20:46:56;10.60;;;8.50;;
6941;SDS011;3510;43.200;27.920;2023-03-02T20:49:26;13.48;;;10.23;;
6941;SDS011;3510;43.200;27.920;2023-03-02T20:51:56;10.80;;;8.43;;
6941;SDS011;3510;43.200;27.920;2023-03-02T20:54:25;10.77;;;9.25;;
6941;SDS011;3510;43.200;27.920;2023-03-02T20:56:55;12.77;;;8.97;;
6941;SDS011;3510;43.200;27.920;2023-03-02T20:59:22;10.13;;;7.87;;
